Denholm, Canada
Current Conditions -  °F | °C
As of 5:00 PM on Monday 20 Oct 2014 (Local Time) from CYQW Reporting Station
Clear Clear  
Wind Chill: 72°   Ceiling: Unl
Heat Index: 72°   Visibility: 9mi
Dew Point: 34°   Wind: 8mph
Humidity: 25%   Direction: 220°SW
Pressure: 29.62"   Gusts: NA
Location:  52.65°N, 108.02°W
Report Text: CYQW 202300Z AUTO 22007KT 9SM CLR 22/01 A2962 RMK SLP036 DENSITY ALT 3300FT
Loading
Personal Weather Stations






























Interactive Weather Map
Tropical Storm Tracking
New forecast layout! Learn more

10-Day Weather Forecast

Advertisements
Track Severe Weather on mobile